createdAt,value
2023-01-23T00:01:47.183Z,67.18
2023-01-23T00:03:48.926Z,67.62
2023-01-23T00:06:01.283Z,67.43
2023-01-23T00:08:02.993Z,67.18
2023-01-23T00:10:05.072Z,67.39
2023-01-23T00:12:07.007Z,66.77
2023-01-23T00:14:10.178Z,66.84
2023-01-23T00:16:17.909Z,66.66
2023-01-23T00:18:19.632Z,66.77
2023-01-23T00:20:21.639Z,66.82
2023-01-23T00:22:23.457Z,66.34
2023-01-23T00:24:25.225Z,66.15
2023-01-23T00:26:29.745Z,66.32
2023-01-23T00:28:31.839Z,65.74
2023-01-23T00:30:34.178Z,65.73
2023-01-23T00:32:36.006Z,66.11
2023-01-23T00:34:38.340Z,65.79
2023-01-23T00:36:42.363Z,65.72
2023-01-23T00:38:44.244Z,65.58
2023-01-23T00:40:46.090Z,65.61
2023-01-23T00:42:47.972Z,65.63
2023-01-23T00:44:49.787Z,65.84
2023-01-23T00:46:51.493Z,65.21
2023-01-23T00:48:53.391Z,65.88
2023-01-23T00:50:55.341Z,65.22
2023-01-23T00:52:57.134Z,65.35
2023-01-23T00:54:59.044Z,65.22
2023-01-23T00:57:00.883Z,64.94
2023-01-23T00:59:02.883Z,65.25
2023-01-23T01:01:04.791Z,65.34
2023-01-23T01:03:07.323Z,65.44
2023-01-23T01:05:09.604Z,65.26
2023-01-23T01:07:11.315Z,65.40
2023-01-23T01:09:13.064Z,65.59
2023-01-23T01:11:15.012Z,65.22
2023-01-23T01:13:21.556Z,65.08
2023-01-23T01:15:23.490Z,65.70
2023-01-23T01:17:25.328Z,65.38
2023-01-23T01:19:28.448Z,65.80
2023-01-23T01:21:30.510Z,65.49
2023-01-23T01:23:32.306Z,65.81
2023-01-23T01:25:34.439Z,65.67
2023-01-23T01:27:36.157Z,65.68
2023-01-23T01:29:37.965Z,65.70
2023-01-23T01:31:39.778Z,65.96
2023-01-23T01:33:43.652Z,65.61
2023-01-23T01:35:45.581Z,65.85
2023-01-23T01:37:47.945Z,65.72
2023-01-23T01:39:49.815Z,65.86
2023-01-23T01:41:51.677Z,66.07
2023-01-23T01:43:57.183Z,65.72
2023-01-23T01:46:25.418Z,65.97
2023-01-23T01:48:32.576Z,65.98
2023-01-23T01:50:35.426Z,65.70
2023-01-23T01:52:37.289Z,66.02
2023-01-23T01:54:47.173Z,65.93
2023-01-23T01:56:55.657Z,66.03
2023-01-23T01:59:00.586Z,65.71
2023-01-23T02:01:02.426Z,65.71
2023-01-23T02:03:04.342Z,65.88
2023-01-23T02:05:27.711Z,65.74
2023-01-23T02:07:41.994Z,65.89
2023-01-23T02:09:43.903Z,65.76
2023-01-23T02:11:45.664Z,65.41
2023-01-23T02:13:47.848Z,65.59
2023-01-23T02:15:50.139Z,65.36
2023-01-23T02:17:54.973Z,65.42
2023-01-23T02:20:13.425Z,65.37
2023-01-23T02:22:46.900Z,65.17
2023-01-23T02:25:06.439Z,64.74
2023-01-23T02:27:08.671Z,64.63
2023-01-23T02:29:11.678Z,64.68
2023-01-23T02:31:14.595Z,64.44
2023-01-23T02:33:19.404Z,64.80
2023-01-23T02:35:30.677Z,64.46
2023-01-23T02:37:34.746Z,64.43
2023-01-23T02:39:37.690Z,64.77
2023-01-23T02:41:42.689Z,64.31
2023-01-23T02:43:45.718Z,64.65
2023-01-23T02:45:48.082Z,64.26
2023-01-23T02:47:49.817Z,64.21
2023-01-23T02:49:51.624Z,64.30
2023-01-23T02:51:54.810Z,64.53
2023-01-23T02:53:56.570Z,64.83
2023-01-23T02:56:00.211Z,65.24
2023-01-23T02:58:20.479Z,64.62
2023-01-23T03:00:22.928Z,64.85
2023-01-23T03:02:25.040Z,64.55
2023-01-23T03:04:26.902Z,64.34
2023-01-23T03:06:28.620Z,64.30
2023-01-23T03:08:36.287Z,64.18
2023-01-23T03:10:38.151Z,64.30
2023-01-23T03:12:43.485Z,63.62
2023-01-23T03:14:45.572Z,63.98
2023-01-23T03:16:51.515Z,63.76
2023-01-23T03:18:54.731Z,63.70
2023-01-23T03:21:02.559Z,64.08
2023-01-23T03:23:04.280Z,63.95
2023-01-23T03:25:06.234Z,64.26
2023-01-23T03:27:08.330Z,64.16
2023-01-23T03:29:38.316Z,64.11
2023-01-23T03:31:40.571Z,64.55
2023-01-23T03:33:43.650Z,64.94
2023-01-23T03:35:45.755Z,65.02
2023-01-23T03:37:48.828Z,65.42
2023-01-23T03:40:09.270Z,65.28
2023-01-23T03:42:11.029Z,65.47
2023-01-23T03:44:13.136Z,66.16
2023-01-23T03:46:14.950Z,66.55
2023-01-23T03:48:16.695Z,66.59
2023-01-23T03:50:18.840Z,66.75
2023-01-23T03:52:20.715Z,66.76
2023-01-23T03:54:22.432Z,67.25
2023-01-23T03:56:24.267Z,67.37
2023-01-23T03:58:26.036Z,67.40
2023-01-23T04:00:27.906Z,67.48
2023-01-23T04:02:29.671Z,67.51
2023-01-23T04:04:33.715Z,67.30
2023-01-23T04:06:35.635Z,67.20
2023-01-23T04:08:37.465Z,66.23
2023-01-23T04:10:39.444Z,65.51
2023-01-23T04:12:43.793Z,65.32
2023-01-23T04:14:45.668Z,65.47
2023-01-23T04:16:47.751Z,64.67
2023-01-23T04:18:51.018Z,64.63
2023-01-23T04:20:53.007Z,64.43
2023-01-23T04:22:54.938Z,64.09
2023-01-23T04:24:56.681Z,64.41
2023-01-23T04:26:58.397Z,64.16
2023-01-23T04:29:00.111Z,64.53
2023-01-23T04:31:02.103Z,64.48
2023-01-23T04:33:03.903Z,64.18
2023-01-23T04:35:06.184Z,64.33
2023-01-23T04:37:07.928Z,64.67
2023-01-23T04:39:09.763Z,64.71
2023-01-23T04:41:20.582Z,64.92
2023-01-23T04:43:22.178Z,64.66
2023-01-23T04:45:23.962Z,64.74
2023-01-23T04:47:25.775Z,64.90
2023-01-23T04:49:27.979Z,65.14
2023-01-23T04:51:29.682Z,65.13
2023-01-23T04:53:31.751Z,65.20
2023-01-23T04:55:34.165Z,64.94
2023-01-23T04:57:35.935Z,65.09
2023-01-23T04:59:37.690Z,65.39
2023-01-23T05:01:39.571Z,65.42
2023-01-23T05:03:41.377Z,65.52
2023-01-23T05:05:44.340Z,65.81
2023-01-23T05:07:46.103Z,65.83
2023-01-23T05:09:47.886Z,65.91
2023-01-23T05:11:49.768Z,66.19
2023-01-23T05:13:51.447Z,66.00
2023-01-23T05:15:53.322Z,66.70
2023-01-23T05:17:55.188Z,66.62
2023-01-23T05:19:56.941Z,66.72
2023-01-23T05:21:58.697Z,67.10
2023-01-23T05:24:00.570Z,67.00
2023-01-23T05:26:02.409Z,66.90
2023-01-23T05:28:04.452Z,66.89
2023-01-23T05:30:07.370Z,66.91
2023-01-23T05:32:09.189Z,67.10
2023-01-23T05:34:10.899Z,66.88
2023-01-23T05:36:12.851Z,66.90
2023-01-23T05:38:14.806Z,66.75
2023-01-23T05:40:17.357Z,67.04
2023-01-23T05:42:19.224Z,66.88
2023-01-23T05:44:20.944Z,67.17
2023-01-23T05:46:22.720Z,66.79
2023-01-23T05:48:24.567Z,67.09
2023-01-23T05:50:26.331Z,67.17
2023-01-23T05:52:28.506Z,67.09
2023-01-23T05:54:30.343Z,67.15
2023-01-23T05:56:32.155Z,67.42
2023-01-23T05:58:34.126Z,67.52
2023-01-23T06:00:36.732Z,67.46
2023-01-23T06:02:38.667Z,67.43
2023-01-23T06:04:49.362Z,67.68
2023-01-23T06:06:51.067Z,67.29
2023-01-23T06:08:52.877Z,67.45
2023-01-23T06:10:54.617Z,66.96
2023-01-23T06:12:56.328Z,66.79
2023-01-23T06:14:58.004Z,66.70
2023-01-23T06:16:59.675Z,66.73
2023-01-23T06:19:01.383Z,66.78
2023-01-23T06:21:03.739Z,66.88
2023-01-23T06:23:05.892Z,67.13
2023-01-23T06:25:07.969Z,67.16
2023-01-23T06:27:09.808Z,67.12
2023-01-23T06:29:11.819Z,67.08
2023-01-23T06:31:13.596Z,67.34
2023-01-23T06:33:15.697Z,67.38
2023-01-23T06:35:17.805Z,67.16
2023-01-23T06:37:19.761Z,67.12
2023-01-23T06:39:21.516Z,67.04
2023-01-23T06:41:24.515Z,66.63
2023-01-23T06:43:26.848Z,66.54
2023-01-23T06:45:28.608Z,66.08
2023-01-23T06:47:30.339Z,65.64
2023-01-23T06:49:32.212Z,65.51
2023-01-23T06:51:34.603Z,64.98
2023-01-23T06:53:36.911Z,65.00
2023-01-23T06:55:38.723Z,64.88
2023-01-23T06:57:43.458Z,64.72
2023-01-23T06:59:45.174Z,64.72
2023-01-23T07:01:47.057Z,63.86
2023-01-23T07:03:48.939Z,63.92
2023-01-23T07:05:50.987Z,63.94
2023-01-23T07:07:52.799Z,63.76
2023-01-23T07:09:54.549Z,63.36
2023-01-23T07:11:56.420Z,63.09
2023-01-23T07:13:58.433Z,62.85
2023-01-23T07:16:00.281Z,62.64
2023-01-23T07:18:02.432Z,62.63
2023-01-23T07:20:04.500Z,63.32
2023-01-23T07:22:06.301Z,63.11
2023-01-23T07:24:08.089Z,63.22
2023-01-23T07:26:11.710Z,63.55
2023-01-23T07:28:13.947Z,63.57
2023-01-23T07:30:16.492Z,63.26
2023-01-23T07:32:18.286Z,63.11
2023-01-23T07:34:19.968Z,63.42
2023-01-23T07:36:21.664Z,63.57
2023-01-23T07:38:23.611Z,63.70
2023-01-23T07:40:25.742Z,63.68
2023-01-23T07:42:27.573Z,63.73
2023-01-23T07:44:29.327Z,63.69
2023-01-23T07:46:31.217Z,63.61
2023-01-23T07:48:33.089Z,63.92
2023-01-23T07:50:35.879Z,63.92
2023-01-23T07:52:38.000Z,63.96
2023-01-23T07:58:05.545Z,64.22
2023-01-23T08:00:08.189Z,64.01
2023-01-23T08:02:11.336Z,64.21
2023-01-23T08:04:17.935Z,64.24
2023-01-23T08:06:20.613Z,64.22
2023-01-23T08:08:22.435Z,63.98
2023-01-23T08:10:24.195Z,64.21
2023-01-23T08:12:26.018Z,64.04
2023-01-23T08:14:28.127Z,64.08
2023-01-23T08:16:29.897Z,63.97
2023-01-23T08:18:32.355Z,63.82
2023-01-23T08:20:34.556Z,63.93
2023-01-23T08:22:40.749Z,63.81
2023-01-23T08:24:55.899Z,63.75
2023-01-23T08:26:57.786Z,63.83
2023-01-23T08:29:00.219Z,63.54
2023-01-23T08:31:08.130Z,64.06
2023-01-23T08:33:09.945Z,63.89
2023-01-23T08:35:11.908Z,63.67
2023-01-23T08:37:13.637Z,63.49
2023-01-23T08:39:17.483Z,63.67
2023-01-23T08:41:19.337Z,63.53
2023-01-23T08:43:22.147Z,63.51
2023-01-23T08:45:23.955Z,63.13
2023-01-23T08:47:25.693Z,63.25
2023-01-23T08:49:27.423Z,63.51
2023-01-23T08:51:29.310Z,63.56
2023-01-23T08:53:31.875Z,63.44
2023-01-23T08:55:36.237Z,63.40
2023-01-23T08:57:37.995Z,63.31
2023-01-23T08:59:39.648Z,63.35
2023-01-23T09:01:41.407Z,63.25
2023-01-23T09:03:43.154Z,63.31
2023-01-23T09:05:44.903Z,62.94
2023-01-23T09:07:48.089Z,63.25
2023-01-23T09:09:49.866Z,63.19
2023-01-23T09:11:51.542Z,63.13
2023-01-23T09:13:54.128Z,62.90
2023-01-23T09:15:56.283Z,62.34
2023-01-23T09:17:58.162Z,62.26
2023-01-23T09:20:00.815Z,62.55
2023-01-23T09:22:02.877Z,62.63
2023-01-23T09:24:04.823Z,62.00
2023-01-23T09:26:12.109Z,62.10
2023-01-23T09:28:14.109Z,62.31
2023-01-23T09:30:16.088Z,61.99
2023-01-23T09:32:17.966Z,62.16
2023-01-23T09:34:19.887Z,62.06
2023-01-23T09:36:33.630Z,62.09
2023-01-23T09:38:43.274Z,62.29
2023-01-23T09:40:53.513Z,62.25
2023-01-23T09:42:58.958Z,61.96
2023-01-23T09:45:04.464Z,62.10
2023-01-23T09:47:20.304Z,62.13
2023-01-23T09:49:41.363Z,61.98
2023-01-23T09:52:01.249Z,62.12
2023-01-23T09:54:24.350Z,61.89
2023-01-23T09:56:35.325Z,62.01
2023-01-23T09:58:46.161Z,61.63
2023-01-23T10:00:48.882Z,61.87
2023-01-23T10:02:53.643Z,61.57
2023-01-23T10:05:02.749Z,61.60
2023-01-23T10:07:23.003Z,61.83
2023-01-23T10:09:45.993Z,61.86
2023-01-23T10:11:58.995Z,61.77
2023-01-23T10:14:26.655Z,61.68
2023-01-23T10:17:02.758Z,61.51
2023-01-23T10:19:22.430Z,61.81
2023-01-23T10:21:27.075Z,61.69
2023-01-23T10:23:40.074Z,61.78
2023-01-23T10:25:42.105Z,62.00
2023-01-23T10:27:47.892Z,61.80
2023-01-23T10:29:57.225Z,61.49
2023-01-23T10:32:01.840Z,61.54
2023-01-23T10:34:20.488Z,61.93
2023-01-23T10:37:00.426Z,61.45
2023-01-23T10:39:11.883Z,61.48
2023-01-23T10:41:15.614Z,62.05
2023-01-23T10:43:22.315Z,61.68
2023-01-23T10:45:25.457Z,61.41
2023-01-23T10:47:37.131Z,60.77
2023-01-23T10:49:45.800Z,61.15
2023-01-23T10:51:48.932Z,61.36
2023-01-23T10:54:36.621Z,60.81
2023-01-23T10:56:49.511Z,60.49
2023-01-23T10:58:56.139Z,60.23
2023-01-23T11:00:58.371Z,59.63
2023-01-23T11:03:24.836Z,59.48
2023-01-23T11:05:52.971Z,60.06
2023-01-23T11:07:56.062Z,59.57
2023-01-23T11:10:00.821Z,59.68
2023-01-23T11:12:06.563Z,59.23
2023-01-23T11:14:21.763Z,59.20
2023-01-23T11:16:24.148Z,59.13
2023-01-23T11:18:34.086Z,59.31
2023-01-23T11:20:39.014Z,59.83
2023-01-23T11:22:44.210Z,60.46
2023-01-23T11:25:01.845Z,59.89
2023-01-23T11:27:20.463Z,60.17
2023-01-23T11:29:24.472Z,59.85
2023-01-23T11:31:28.609Z,59.52
2023-01-23T11:33:52.654Z,59.13
2023-01-23T11:36:03.421Z,58.85
2023-01-23T11:38:05.207Z,58.69
2023-01-23T11:40:14.147Z,58.82
2023-01-23T11:42:17.637Z,57.56
2023-01-23T11:44:23.638Z,57.69
2023-01-23T11:46:47.559Z,57.89
2023-01-23T11:49:31.380Z,57.77
2023-01-23T11:51:49.123Z,57.29
2023-01-23T11:54:14.188Z,56.38
2023-01-23T11:56:30.897Z,56.41
2023-01-23T11:58:49.034Z,55.74
2023-01-23T12:01:16.705Z,55.82
2023-01-23T12:03:32.645Z,55.85
2023-01-23T12:05:40.201Z,55.60
2023-01-23T12:07:54.117Z,55.37
2023-01-23T12:10:20.756Z,55.48
2023-01-23T12:12:45.062Z,55.30
2023-01-23T12:14:52.185Z,54.90
2023-01-23T12:17:09.217Z,54.96
2023-01-23T12:19:29.695Z,55.17
2023-01-23T12:21:56.223Z,55.07
2023-01-23T12:24:11.438Z,55.27
2023-01-23T12:26:24.791Z,55.19
2023-01-23T12:28:54.379Z,55.71
2023-01-23T12:30:56.311Z,55.27
2023-01-23T12:33:03.159Z,55.20
2023-01-23T12:35:23.914Z,55.19
2023-01-23T12:37:53.279Z,55.58
2023-01-23T12:40:14.230Z,55.33
2023-01-23T12:42:21.847Z,55.44
2023-01-23T12:44:32.164Z,55.48
2023-01-23T12:46:40.303Z,55.12
2023-01-23T12:49:10.235Z,55.74
2023-01-23T12:51:32.553Z,55.94
2023-01-23T12:53:38.374Z,55.71
2023-01-23T12:55:46.065Z,55.44
2023-01-23T12:57:59.828Z,55.43
2023-01-23T13:00:21.199Z,55.36
2023-01-23T13:02:42.259Z,55.44
2023-01-23T13:05:27.644Z,55.22
2023-01-23T13:07:58.958Z,55.77
2023-01-23T13:10:52.067Z,55.62
2023-01-23T13:12:56.326Z,55.39
2023-01-23T13:15:27.766Z,54.69
2023-01-23T13:17:49.205Z,54.50
2023-01-23T13:20:09.631Z,54.33
2023-01-23T13:22:32.320Z,53.51
2023-01-23T13:25:18.012Z,53.37
2023-01-23T13:27:47.369Z,52.95
2023-01-23T13:29:50.665Z,52.70
2023-01-23T13:32:23.333Z,52.82
2023-01-23T13:34:25.546Z,52.58
2023-01-23T13:36:31.217Z,52.50
2023-01-23T13:38:39.616Z,52.06
2023-01-23T13:41:01.363Z,51.88
2023-01-23T13:43:55.050Z,51.95
2023-01-23T13:45:57.176Z,52.32
2023-01-23T14:20:23.236Z,51.80
2023-01-23T14:22:28.191Z,51.85
2023-01-23T14:24:55.048Z,51.29
2023-01-23T14:27:07.480Z,51.08
2023-01-23T14:29:23.932Z,51.05
2023-01-23T14:31:34.164Z,50.90
2023-01-23T14:33:45.353Z,51.00
2023-01-23T14:35:47.408Z,50.87
2023-01-23T14:37:50.158Z,51.02
2023-01-23T14:39:53.647Z,51.11
2023-01-23T14:42:02.367Z,51.34
2023-01-23T14:44:05.168Z,51.44
2023-01-23T14:46:18.250Z,51.61
2023-01-23T14:48:21.506Z,51.32
2023-01-23T14:50:26.773Z,51.58
2023-01-23T14:52:30.928Z,51.82
2023-01-23T14:54:34.653Z,52.26
2023-01-23T14:56:39.358Z,51.99
2023-01-23T14:58:41.666Z,51.70
2023-01-23T15:00:46.168Z,51.89
2023-01-23T15:02:54.464Z,52.00
2023-01-23T15:05:19.719Z,52.06
2023-01-23T15:07:21.658Z,51.92
2023-01-23T15:09:45.961Z,52.25
2023-01-23T15:11:48.238Z,52.19
2023-01-23T15:13:55.158Z,51.85
2023-01-23T15:15:59.965Z,52.07
2023-01-23T15:18:05.841Z,52.09
2023-01-23T15:20:33.083Z,52.39
2023-01-23T15:22:35.909Z,52.60
2023-01-23T15:24:37.692Z,52.39
2023-01-23T15:26:42.023Z,52.56
2023-01-23T15:29:00.464Z,52.68
2023-01-23T15:31:02.482Z,52.77
2023-01-23T15:33:22.562Z,53.00
2023-01-23T15:35:25.055Z,53.30
2023-01-23T15:37:28.107Z,53.15
2023-01-23T15:39:34.631Z,53.14
2023-01-23T15:42:05.528Z,53.38
2023-01-23T15:44:18.628Z,53.73
2023-01-23T15:46:20.501Z,53.88
2023-01-23T15:48:22.486Z,54.20
2023-01-23T15:50:24.547Z,54.27
2023-01-23T15:52:30.037Z,54.25
2023-01-23T15:54:49.792Z,54.48
2023-01-23T15:57:05.398Z,54.79
2023-01-23T15:59:16.415Z,54.92
2023-01-23T16:01:18.344Z,54.97
2023-01-23T16:03:20.263Z,54.74
2023-01-23T16:05:27.018Z,54.96
2023-01-23T16:07:34.953Z,55.13
2023-01-23T16:09:39.518Z,55.48
2023-01-23T16:11:41.668Z,55.53
2023-01-23T16:13:43.505Z,55.34
2023-01-23T16:15:45.283Z,55.79
2023-01-23T16:17:47.854Z,55.85
2023-01-23T16:19:50.882Z,56.20
2023-01-23T16:22:03.971Z,55.68
2023-01-23T16:24:07.165Z,56.39
2023-01-23T16:26:21.519Z,56.40
2023-01-23T16:28:26.668Z,56.06
2023-01-23T16:30:28.705Z,55.90
2023-01-23T16:32:30.560Z,55.73
2023-01-23T16:34:32.580Z,56.07
2023-01-23T16:36:34.388Z,55.96
2023-01-23T16:38:36.249Z,56.33
2023-01-23T16:40:38.145Z,56.28
2023-01-23T16:42:40.742Z,55.94
2023-01-23T16:44:47.185Z,56.08
2023-01-23T16:46:49.786Z,56.32
2023-01-23T16:48:54.864Z,56.18
2023-01-23T16:51:05.314Z,55.99
2023-01-23T16:53:23.250Z,56.30
2023-01-23T16:55:30.326Z,56.17
2023-01-23T16:57:33.426Z,56.31
2023-01-23T16:59:37.917Z,55.75
2023-01-23T17:01:41.935Z,55.84
2023-01-23T17:03:44.963Z,55.70
2023-01-23T17:05:46.967Z,55.69
2023-01-23T17:07:48.944Z,55.88
2023-01-23T17:09:51.936Z,55.80
2023-01-23T17:11:55.954Z,55.84
2023-01-23T17:14:00.942Z,55.85
2023-01-23T17:16:07.388Z,56.23
2023-01-23T17:18:27.281Z,56.35
2023-01-23T17:20:29.129Z,56.33
2023-01-23T17:22:37.232Z,56.25
2023-01-23T17:24:48.959Z,56.35
2023-01-23T17:26:50.688Z,56.35
2023-01-23T17:28:52.626Z,56.29
2023-01-23T17:30:55.717Z,56.24
2023-01-23T17:32:58.341Z,56.59
2023-01-23T17:35:03.191Z,56.48
2023-01-23T17:37:13.255Z,56.35
2023-01-23T17:39:15.106Z,56.38
2023-01-23T17:41:17.746Z,56.64
2023-01-23T17:43:21.074Z,56.43
2023-01-23T17:45:24.758Z,56.75
2023-01-23T17:47:34.889Z,56.53
2023-01-23T17:49:36.892Z,56.93
2023-01-23T17:51:38.678Z,56.47
2023-01-23T17:53:42.220Z,57.13
2023-01-23T17:55:48.154Z,56.59
2023-01-23T17:57:50.533Z,56.45
2023-01-23T17:59:55.486Z,56.25
2023-01-23T18:01:58.500Z,56.70
2023-01-23T18:04:00.299Z,56.69
2023-01-23T18:06:02.159Z,56.96
2023-01-23T18:08:04.187Z,56.56
2023-01-23T18:10:08.202Z,56.75
2023-01-23T18:12:20.123Z,56.74
2023-01-23T18:14:31.299Z,56.83
2023-01-23T18:16:40.187Z,57.20
2023-01-23T18:18:43.310Z,56.93
2023-01-23T18:20:45.298Z,56.84
2023-01-23T18:22:47.703Z,56.74
2023-01-23T18:24:55.292Z,56.74
2023-01-23T18:27:05.177Z,56.66
2023-01-23T18:29:26.428Z,56.75
2023-01-23T18:31:41.099Z,56.43
2023-01-23T18:33:52.317Z,56.53
2023-01-23T18:36:13.039Z,56.52
2023-01-23T18:38:28.911Z,56.63
2023-01-23T18:40:43.349Z,56.87
2023-01-23T18:43:30.442Z,56.61
2023-01-23T18:45:33.236Z,56.46
2023-01-23T18:47:35.351Z,56.93
2023-01-23T18:49:37.710Z,56.40
2023-01-23T18:51:49.818Z,56.59
2023-01-23T18:54:16.117Z,56.69
2023-01-23T18:56:43.264Z,56.45
2023-01-23T18:58:52.348Z,56.48
2023-01-23T19:01:22.639Z,56.58
2023-01-23T19:03:38.691Z,55.96
2023-01-23T19:05:40.811Z,56.04
2023-01-23T19:07:43.699Z,56.00
2023-01-23T19:09:46.976Z,56.00
2023-01-23T19:12:34.521Z,56.16
2023-01-23T19:14:38.939Z,56.08
2023-01-23T19:16:54.121Z,56.38
2023-01-23T19:19:10.719Z,56.41
2023-01-23T19:21:23.729Z,55.96
2023-01-23T19:23:34.714Z,56.21
2023-01-23T19:25:36.476Z,56.06
2023-01-23T19:27:38.432Z,56.24
2023-01-23T19:29:40.502Z,56.14
2023-01-23T19:31:47.475Z,56.14
2023-01-23T19:33:59.522Z,56.40
2023-01-23T19:36:02.009Z,56.46
2023-01-23T19:38:03.875Z,56.34
2023-01-23T19:40:10.638Z,56.63
2023-01-23T19:42:14.796Z,56.29
2023-01-23T19:44:19.107Z,56.33
2023-01-23T19:46:22.454Z,56.41
2023-01-23T19:48:24.329Z,56.53
2023-01-23T19:50:26.144Z,56.58
2023-01-23T19:52:27.933Z,56.72
2023-01-23T19:54:29.674Z,56.71
2023-01-23T19:56:31.463Z,56.88
2023-01-23T19:58:33.392Z,56.75
2023-01-23T20:00:36.375Z,56.52
2023-01-23T20:02:38.151Z,56.85
2023-01-23T20:04:39.884Z,57.80
2023-01-23T20:06:42.980Z,57.48
2023-01-23T20:08:44.918Z,57.24
2023-01-23T20:10:46.626Z,57.16
2023-01-23T20:12:52.265Z,56.90
2023-01-23T20:14:56.992Z,57.18
2023-01-23T20:16:58.976Z,56.80
2023-01-23T20:19:00.899Z,56.95
2023-01-23T20:21:02.738Z,57.28
2023-01-23T20:23:04.714Z,56.81
2023-01-23T20:25:08.882Z,56.98
2023-01-23T20:27:10.704Z,56.80
2023-01-23T20:29:12.567Z,56.86
2023-01-23T20:31:14.691Z,56.87
2023-01-23T20:33:16.529Z,56.83
2023-01-23T20:35:18.426Z,57.02
2023-01-23T20:37:20.301Z,56.87
2023-01-23T20:39:22.114Z,56.97
2023-01-23T20:41:24.025Z,56.81
2023-01-23T20:43:25.753Z,56.79
2023-01-23T20:45:27.530Z,57.04
2023-01-23T20:47:29.499Z,57.15
2023-01-23T20:49:31.392Z,56.95
2023-01-23T20:51:33.304Z,57.48
2023-01-23T20:53:35.878Z,57.54
2023-01-23T20:55:37.658Z,57.40
2023-01-23T20:57:57.980Z,58.00
2023-01-23T21:01:10.789Z,57.40
2023-01-23T21:03:12.687Z,57.96
2023-01-23T21:05:14.408Z,57.49
2023-01-23T21:07:17.011Z,57.84
2023-01-23T21:09:18.850Z,57.56
2023-01-23T21:11:21.109Z,57.55
2023-01-23T21:13:22.799Z,57.59
2023-01-23T21:15:24.658Z,57.28
2023-01-23T21:17:27.332Z,57.46
2023-01-23T21:19:29.017Z,57.31
2023-01-23T21:21:30.760Z,57.06
2023-01-23T21:23:33.159Z,56.93
2023-01-23T21:25:36.029Z,56.85
2023-01-23T21:27:37.709Z,57.14
2023-01-23T21:29:39.581Z,57.00
2023-01-23T21:31:42.018Z,56.88
2023-01-23T21:33:44.959Z,56.84
2023-01-23T21:35:50.924Z,56.84
2023-01-23T21:37:52.547Z,57.05
2023-01-23T21:39:54.243Z,56.96
2023-01-23T21:41:55.896Z,57.16
2023-01-23T21:43:57.605Z,57.31
2023-01-23T21:45:59.447Z,56.91
2023-01-23T21:48:01.195Z,57.40
2023-01-23T21:50:02.934Z,57.58
2023-01-23T21:52:04.848Z,57.70
2023-01-23T21:54:06.680Z,57.38
2023-01-23T21:56:09.859Z,57.64
2023-01-23T21:58:11.607Z,57.56
2023-01-23T22:00:32.034Z,57.81
2023-01-23T22:02:33.840Z,58.36
2023-01-23T22:04:36.144Z,58.05
2023-01-23T22:06:40.512Z,58.23
2023-01-23T22:08:42.602Z,58.30
2023-01-23T22:10:44.484Z,58.54
2023-01-23T22:12:46.194Z,58.41
2023-01-23T22:14:55.864Z,58.24
2023-01-23T22:16:57.718Z,57.87
2023-01-23T22:19:14.662Z,58.38
2023-01-23T22:21:21.044Z,58.30
2023-01-23T22:23:47.659Z,58.27
2023-01-23T22:25:50.593Z,58.50
2023-01-23T22:28:16.441Z,58.48
2023-01-23T22:30:18.265Z,58.18
2023-01-23T22:32:20.507Z,58.30
2023-01-23T22:34:22.685Z,58.69
2023-01-23T22:36:24.755Z,58.48
2023-01-23T22:38:27.018Z,58.54
2023-01-23T22:40:29.238Z,58.96
2023-01-23T22:42:31.374Z,58.60
2023-01-23T22:44:33.661Z,58.63
2023-01-23T22:46:35.848Z,58.71
2023-01-23T22:48:39.188Z,58.38
2023-01-23T22:50:41.521Z,58.46
2023-01-23T22:52:43.902Z,58.25
2023-01-23T22:54:53.980Z,58.25
2023-01-23T22:56:55.616Z,58.07
2023-01-23T22:58:57.433Z,58.03
2023-01-23T23:00:59.080Z,58.28
2023-01-23T23:03:00.741Z,58.66
2023-01-23T23:05:02.443Z,58.50
2023-01-23T23:07:04.312Z,58.67
2023-01-23T23:09:06.032Z,58.50
2023-01-23T23:11:10.827Z,58.67
2023-01-23T23:13:12.517Z,58.23
2023-01-23T23:15:15.997Z,58.49
2023-01-23T23:17:18.310Z,58.03
2023-01-23T23:19:19.978Z,58.62
2023-01-23T23:21:25.333Z,58.26
2023-01-23T23:23:27.651Z,58.95
2023-01-23T23:25:29.371Z,58.50
2023-01-23T23:27:31.009Z,58.86
2023-01-23T23:29:32.874Z,58.66
2023-01-23T23:31:34.955Z,58.83
2023-01-23T23:33:37.178Z,58.80
2023-01-23T23:35:38.897Z,58.98
2023-01-23T23:37:40.678Z,58.68
2023-01-23T23:39:42.399Z,59.12
2023-01-23T23:41:44.066Z,58.95
2023-01-23T23:43:45.913Z,58.92
2023-01-23T23:45:52.168Z,59.06
2023-01-23T23:47:55.106Z,58.97
2023-01-23T23:49:56.817Z,58.92
2023-01-23T23:51:58.549Z,59.07
2023-01-23T23:54:00.233Z,58.79
2023-01-23T23:56:02.319Z,59.05
2023-01-23T23:58:04.111Z,59.29
